Route Details

Aircraft Information
Group: European Fleet
Types: A30F, A31F, B738
Route Data
Distance: 1064nm
Duration: 2h 35m
Origin METAR: EDDK 010550Z AUTO 27014KT 9999 SCT024 06/02 Q1020 NOSIG
Dest. METAR: LTFM 010520Z 33012KT 9999 FEW014 BKN021 04/00 Q1016 NOSIG RMK RWY17L 32012KT RWY34L 30008G18KT RWY16R 32010KT RWY36 32010KT 280V340 RWY18 33013KT
Freight Data
(for Feb 1, 2023)
Load Factor:
51%
Manifested Cargo: 37,275lbs
Financial History
Total Freight: 350,001lbs
Average Load: 0lbs/flt
Fuel Used: 139,701lbs
Avg. Fuel Used: 0lbs/flt
Fuel Expense: $58,430
Avg. Fuel Expense: $0
Avg. Fuel Cost: $0/lbs
Total Gross Income: $882,300
Pilot Pay: $1,036
Total Expenses: $133,341
Total Revenue: $687,368
Average Revenue: $0

Capitol Logistics 503




EDDK
Cologne Bonn Airport
Cologne, DE
LTFM
Istanbul Airport
Istanbul, TR